Time;durP1;ratioP1;P1;durP2;ratioP2;P2;SDS_P1;SDS_P2;PMS_P1;PMS_P2;Temp;Humidity;BMP_temperature;BMP_pressure;BME280_temperature;BME280_humidity;BME280_pressure;Samples;Min_cycle;Max_cycle;Signal;HPM_P1;HPM_P2
2023/08/27 00:04:35;;;;;;;0.20;0.10;;;;;;;;;;4970641;28;20545;-87
2023/08/27 00:07:28;;;;;;;0.28;0.28;;;;;;;;;;4956489;28;20081;-86
2023/08/27 00:10:09;;;;;;;0.20;0.08;;;;;;;;;;4984374;28;20538;-86
2023/08/27 00:12:48;;;;;;;0.20;0.10;;;;;;;;;;4954108;28;20089;-86
2023/08/27 00:15:34;;;;;;;0.20;0.10;;;;;;;;;;4957737;28;20061;-86
2023/08/27 00:25:18;;;;;;;0.20;0.20;;;;;;;;;;4944367;28;20044;-86
2023/08/27 00:31:34;;;;;;;0.20;0.10;;;;;;;;;;4892463;29;20059;-86
2023/08/27 00:34:09;;;;;;;0.20;0.10;;;;;;;;;;4873607;29;20422;-86
2023/08/27 00:37:12;;;;;;;0.20;0.10;;;;;;;;;;4906119;28;20534;-86
2023/08/27 00:43:41;;;;;;;;;;;;;;;;;;;;;
2023/08/27 00:46:39;;;;;;;0.30;0.20;;;;;;;;;;4884998;29;20113;-87
2023/08/27 00:49:23;;;;;;;0.20;0.10;;;;;;;;;;4935955;28;20058;-87
2023/08/27 00:55:35;;;;;;;0.43;0.43;;;;;;;;;;4937083;28;20046;-86
2023/08/27 01:05:57;;;;;;;0.30;0.30;;;;;;;;;;4864773;29;21461;-86
2023/08/27 01:08:40;;;;;;;;;;;;;;;;;;;;;
2023/08/27 01:12:09;;;;;;;0.22;0.10;;;;;;;;;;4919732;29;20167;-84
2023/08/27 01:15:21;;;;;;;0.20;0.10;;;;;;;;;;4907183;29;20099;-84
2023/08/27 01:18:37;;;;;;;;;;;;;;;;;;;;;
2023/08/27 01:21:35;;;;;;;;;;;;;;;;;;;;;
2023/08/27 01:24:51;;;;;;;0.20;0.10;;;;;;;;;;5010914;28;20041;-84
2023/08/27 01:31:18;;;;;;;0.20;0.03;;;;;;;;;;4911632;28;20054;-84
2023/08/27 01:34:10;;;;;;;0.20;0.20;;;;;;;;;;4966694;28;20491;-84
2023/08/27 01:37:23;;;;;;;;;;;;;;;;;;;;;
2023/08/27 01:45:04;;;;;;;;;;;;;;;;;;;;;
2023/08/27 01:50:53;;;;;;;0.20;0.00;;;;;;;;;;4898086;29;20047;-87
2023/08/27 01:53:22;;;;;;;0.20;0.10;;;;;;;;;;4874029;29;20562;-86
2023/08/27 01:59:08;;;;;;;0.25;0.25;;;;;;;;;;4877622;29;20056;-87
2023/08/27 02:05:05;;;;;;;0.20;0.10;;;;;;;;;;4911897;29;20051;-86
2023/08/27 02:07:52;;;;;;;1.85;1.27;;;;;;;;;;4904266;29;20126;-86
2023/08/27 02:10:33;;;;;;;0.28;0.10;;;;;;;;;;4915023;29;20043;-86
2023/08/27 02:14:09;;;;;;;0.30;0.28;;;;;;;;;;4914441;28;20047;-86
2023/08/27 02:16:36;;;;;;;0.20;0.10;;;;;;;;;;4884273;22;20053;-79
2023/08/27 02:19:03;;;;;;;0.20;0.10;;;;;;;;;;5039871;28;20036;-80
2023/08/27 02:21:29;;;;;;;0.20;0.10;;;;;;;;;;5040585;28;20585;-79
2023/08/27 02:23:55;;;;;;;0.20;0.10;;;;;;;;;;5030150;28;20049;-79
2023/08/27 02:26:21;;;;;;;0.20;0.10;;;;;;;;;;5043000;28;20105;-79
2023/08/27 02:28:47;;;;;;;0.20;0.15;;;;;;;;;;5055379;28;20032;-79
2023/08/27 02:31:14;;;;;;;0.20;0.10;;;;;;;;;;5043962;28;20040;-78
2023/08/27 02:33:40;;;;;;;0.20;0.05;;;;;;;;;;5048774;28;20913;-79
2023/08/27 02:36:06;;;;;;;0.20;0.10;;;;;;;;;;5046052;28;20040;-79
2023/08/27 02:38:33;;;;;;;0.20;0.10;;;;;;;;;;5048512;28;20045;-79
2023/08/27 02:40:59;;;;;;;0.20;0.13;;;;;;;;;;5057014;28;20043;-80
2023/08/27 02:43:25;;;;;;;0.20;0.10;;;;;;;;;;5058271;28;20700;-80
2023/08/27 02:45:51;;;;;;;0.20;0.00;;;;;;;;;;5063489;28;20097;-78
2023/08/27 02:48:17;;;;;;;0.20;0.10;;;;;;;;;;5050359;28;20040;-79
2023/08/27 02:50:43;;;;;;;0.20;0.00;;;;;;;;;;5043052;28;22186;-79
2023/08/27 02:53:09;;;;;;;0.20;0.10;;;;;;;;;;5047369;28;20500;-80
2023/08/27 02:55:35;;;;;;;0.20;0.20;;;;;;;;;;5061886;28;20057;-80
2023/08/27 02:58:02;;;;;;;0.30;0.30;;;;;;;;;;5043217;28;21114;-80
2023/08/27 03:00:28;;;;;;;0.20;0.10;;;;;;;;;;5050551;28;20502;-81
2023/08/27 03:02:54;;;;;;;0.20;0.10;;;;;;;;;;5082603;28;20090;-81
2023/08/27 03:05:20;;;;;;;0.20;0.10;;;;;;;;;;5046183;28;20047;-81
2023/08/27 03:07:46;;;;;;;0.20;0.10;;;;;;;;;;5060353;28;20033;-80
2023/08/27 03:10:14;;;;;;;0.30;0.20;;;;;;;;;;5050028;28;20044;-79
2023/08/27 03:12:40;;;;;;;0.20;0.00;;;;;;;;;;5051397;28;20589;-79
2023/08/27 03:15:06;;;;;;;0.20;0.20;;;;;;;;;;5058989;28;20481;-79
2023/08/27 03:17:33;;;;;;;0.20;0.20;;;;;;;;;;5060148;28;20505;-80
2023/08/27 03:19:59;;;;;;;0.20;0.10;;;;;;;;;;5058392;28;20485;-80
2023/08/27 03:22:25;;;;;;;0.20;0.10;;;;;;;;;;5042430;28;20032;-80
2023/08/27 03:24:53;;;;;;;0.40;0.40;;;;;;;;;;5063371;28;20037;-80
2023/08/27 03:27:20;;;;;;;0.20;0.13;;;;;;;;;;5069045;28;20519;-80
2023/08/27 03:29:46;;;;;;;0.20;0.00;;;;;;;;;;5039859;28;20052;-80
2023/08/27 03:32:13;;;;;;;0.32;0.13;;;;;;;;;;5046181;28;20032;-80
2023/08/27 03:34:39;;;;;;;0.20;0.10;;;;;;;;;;5051309;28;20036;-81
2023/08/27 03:37:05;;;;;;;0.20;0.10;;;;;;;;;;5058835;28;20045;-80
2023/08/27 03:39:31;;;;;;;0.20;0.10;;;;;;;;;;5066526;28;20559;-81
2023/08/27 03:41:57;;;;;;;0.20;0.10;;;;;;;;;;5059730;28;20044;-81
2023/08/27 03:44:24;;;;;;;0.20;0.10;;;;;;;;;;5046862;28;20049;-81
2023/08/27 03:46:50;;;;;;;0.20;0.20;;;;;;;;;;5067580;28;20064;-81
2023/08/27 03:49:16;;;;;;;0.20;0.10;;;;;;;;;;5046532;28;20348;-81
2023/08/27 03:51:42;;;;;;;0.20;0.10;;;;;;;;;;5048631;28;20818;-80
2023/08/27 03:54:08;;;;;;;0.20;0.10;;;;;;;;;;5051508;28;20071;-80
2023/08/27 03:56:34;;;;;;;0.20;0.10;;;;;;;;;;5054466;28;20505;-81
2023/08/27 03:59:00;;;;;;;0.20;0.10;;;;;;;;;;5045149;28;20734;-80
2023/08/27 04:01:26;;;;;;;0.20;0.10;;;;;;;;;;5047508;28;20041;-80
2023/08/27 04:03:54;;;;;;;0.20;0.10;;;;;;;;;;5050876;28;20055;-80
2023/08/27 04:06:21;;;;;;;0.20;0.10;;;;;;;;;;5059556;28;20383;-80
2023/08/27 04:08:47;;;;;;;0.20;0.10;;;;;;;;;;5043830;28;20040;-80
2023/08/27 04:11:13;;;;;;;0.20;0.10;;;;;;;;;;5063533;28;20037;-78
2023/08/27 04:13:39;;;;;;;0.20;0.10;;;;;;;;;;5060680;28;20052;-79
2023/08/27 04:16:06;;;;;;;0.20;0.10;;;;;;;;;;5044466;28;20055;-79
2023/08/27 04:18:35;;;;;;;0.20;0.00;;;;;;;;;;5035345;28;20044;-78
2023/08/27 04:21:01;;;;;;;0.20;0.10;;;;;;;;;;5048838;28;20032;-78
2023/08/27 04:23:27;;;;;;;0.20;0.20;;;;;;;;;;5045413;28;20082;-78
2023/08/27 04:25:54;;;;;;;0.20;0.10;;;;;;;;;;5059648;28;20037;-79
2023/08/27 04:28:20;;;;;;;0.50;0.40;;;;;;;;;;5060942;28;20155;-79
2023/08/27 04:30:49;;;;;;;0.20;0.03;;;;;;;;;;5066717;28;20528;-79
2023/08/27 04:33:16;;;;;;;0.30;0.20;;;;;;;;;;5062975;28;21901;-79
2023/08/27 04:35:44;;;;;;;0.30;0.30;;;;;;;;;;5061549;28;20071;-79
2023/08/27 04:38:10;;;;;;;0.20;0.10;;;;;;;;;;5050532;28;20040;-78
2023/08/27 04:40:36;;;;;;;0.28;0.25;;;;;;;;;;5049940;28;20242;-80
2023/08/27 04:43:03;;;;;;;0.20;0.10;;;;;;;;;;5062950;28;20561;-82
2023/08/27 04:45:29;;;;;;;0.20;0.10;;;;;;;;;;5051417;28;20445;-81
2023/08/27 04:47:55;;;;;;;0.20;0.10;;;;;;;;;;5060180;28;20093;-81
2023/08/27 04:50:21;;;;;;;0.20;0.10;;;;;;;;;;5056742;28;20497;-81
2023/08/27 04:52:47;;;;;;;0.20;0.20;;;;;;;;;;5063769;28;20520;-80
2023/08/27 04:55:13;;;;;;;0.20;0.20;;;;;;;;;;5062598;28;20049;-82
2023/08/27 04:57:39;;;;;;;0.20;0.20;;;;;;;;;;5051673;28;20041;-81
2023/08/27 05:00:16;;;;;;;0.20;0.10;;;;;;;;;;5047919;28;20036;-80
2023/08/27 05:02:42;;;;;;;0.20;0.10;;;;;;;;;;5068801;28;20068;-80
2023/08/27 05:05:08;;;;;;;0.20;0.10;;;;;;;;;;5052789;28;20025;-80
2023/08/27 05:07:35;;;;;;;0.20;0.00;;;;;;;;;;5045599;28;20048;-81
2023/08/27 05:10:01;;;;;;;0.25;0.25;;;;;;;;;;5047090;28;20203;-79
2023/08/27 05:12:27;;;;;;;0.20;0.10;;;;;;;;;;5061504;28;20059;-80
2023/08/27 05:14:53;;;;;;;0.28;0.17;;;;;;;;;;5064619;28;20040;-81
2023/08/27 05:17:20;;;;;;;0.22;0.15;;;;;;;;;;5052319;28;20055;-81
2023/08/27 05:19:46;;;;;;;0.50;0.50;;;;;;;;;;5053559;28;20043;-82
2023/08/27 05:22:12;;;;;;;0.20;0.10;;;;;;;;;;5042762;28;20143;-81
2023/08/27 05:24:38;;;;;;;0.20;0.10;;;;;;;;;;5061811;28;20047;-81
2023/08/27 05:27:04;;;;;;;0.20;0.10;;;;;;;;;;5064879;28;20033;-81
2023/08/27 05:29:30;;;;;;;0.30;0.17;;;;;;;;;;5045644;28;20544;-82
2023/08/27 05:31:56;;;;;;;0.20;0.10;;;;;;;;;;5069373;28;20036;-82
2023/08/27 05:34:23;;;;;;;0.20;0.10;;;;;;;;;;5067749;28;20171;-82
2023/08/27 05:36:49;;;;;;;0.20;0.00;;;;;;;;;;5051360;28;20043;-81
2023/08/27 05:39:15;;;;;;;0.20;0.10;;;;;;;;;;5049627;28;20636;-81
2023/08/27 05:41:41;;;;;;;0.20;0.10;;;;;;;;;;5049738;28;20040;-82
2023/08/27 05:44:07;;;;;;;0.30;0.20;;;;;;;;;;5051420;28;20028;-81
2023/08/27 05:46:33;;;;;;;0.20;0.10;;;;;;;;;;5066550;28;20024;-80
2023/08/27 05:49:00;;;;;;;0.20;0.10;;;;;;;;;;5052271;28;20223;-80
2023/08/27 05:51:26;;;;;;;0.22;0.20;;;;;;;;;;5064830;28;20051;-82
2023/08/27 05:53:52;;;;;;;0.20;0.10;;;;;;;;;;5049426;28;20048;-82
2023/08/27 05:56:18;;;;;;;0.20;0.10;;;;;;;;;;5044044;28;20091;-82
2023/08/27 05:58:45;;;;;;;0.20;0.10;;;;;;;;;;5046818;28;20076;-82
2023/08/27 06:01:11;;;;;;;0.20;0.10;;;;;;;;;;5060093;28;20072;-82
2023/08/27 06:03:37;;;;;;;0.20;0.10;;;;;;;;;;5049328;28;20524;-81
2023/08/27 06:06:03;;;;;;;0.20;0.10;;;;;;;;;;5063557;28;20035;-81
2023/08/27 06:08:29;;;;;;;0.20;0.15;;;;;;;;;;5059998;28;20051;-82
2023/08/27 06:10:56;;;;;;;0.20;0.10;;;;;;;;;;5044553;28;20043;-82
2023/08/27 06:13:22;;;;;;;0.20;0.10;;;;;;;;;;5065914;28;20040;-79
2023/08/27 06:15:49;;;;;;;0.20;0.08;;;;;;;;;;5082079;28;20039;-81
2023/08/27 06:18:15;;;;;;;0.20;0.10;;;;;;;;;;5041183;28;20063;-81
2023/08/27 06:20:42;;;;;;;0.20;0.10;;;;;;;;;;5051707;28;20505;-82
2023/08/27 06:23:09;;;;;;;0.20;0.10;;;;;;;;;;5038898;28;20040;-81
2023/08/27 06:25:35;;;;;;;0.20;0.10;;;;;;;;;;5064828;28;20055;-82
2023/08/27 06:28:02;;;;;;;0.20;0.10;;;;;;;;;;5037752;28;20059;-81
2023/08/27 06:30:28;;;;;;;0.30;0.10;;;;;;;;;;5041982;28;20097;-83
2023/08/27 06:32:54;;;;;;;0.20;0.10;;;;;;;;;;5045342;28;20070;-83
2023/08/27 06:35:21;;;;;;;0.20;0.20;;;;;;;;;;5041667;28;20049;-83
2023/08/27 06:37:47;;;;;;;0.20;0.10;;;;;;;;;;5042136;28;20040;-86
2023/08/27 06:40:16;;;;;;;0.20;0.10;;;;;;;;;;5057910;28;20115;-85
2023/08/27 06:42:42;;;;;;;0.20;0.10;;;;;;;;;;5044161;28;20040;-83
2023/08/27 06:45:11;;;;;;;0.20;0.03;;;;;;;;;;5040699;28;20067;-86
2023/08/27 06:47:37;;;;;;;0.20;0.10;;;;;;;;;;5040442;28;20131;-84
2023/08/27 06:50:04;;;;;;;0.20;0.10;;;;;;;;;;5054441;28;20193;-86
2023/08/27 06:52:34;;;;;;;0.45;0.45;;;;;;;;;;5042856;28;20164;-84
2023/08/27 06:55:00;;;;;;;0.20;0.10;;;;;;;;;;5041318;28;20733;-85
2023/08/27 06:57:26;;;;;;;0.20;0.10;;;;;;;;;;5042120;28;20124;-85
2023/08/27 06:59:52;;;;;;;0.20;0.10;;;;;;;;;;5043822;28;20523;-84
2023/08/27 07:02:18;;;;;;;0.20;0.10;;;;;;;;;;5036518;28;20044;-85
2023/08/27 07:04:44;;;;;;;0.20;0.10;;;;;;;;;;5055221;28;20828;-82
2023/08/27 07:07:10;;;;;;;0.20;0.10;;;;;;;;;;5056225;28;20119;-84
2023/08/27 07:09:37;;;;;;;0.20;0.10;;;;;;;;;;5053086;28;20052;-84
2023/08/27 07:12:03;;;;;;;0.20;0.10;;;;;;;;;;5053880;28;20048;-85
2023/08/27 07:14:29;;;;;;;0.20;0.10;;;;;;;;;;5054422;28;20032;-84
2023/08/27 07:16:55;;;;;;;0.85;0.40;;;;;;;;;;5043002;28;20055;-84
2023/08/27 07:19:21;;;;;;;0.20;0.10;;;;;;;;;;5044305;28;20049;-84
2023/08/27 07:21:47;;;;;;;0.20;0.10;;;;;;;;;;5054723;28;20033;-83
2023/08/27 07:24:13;;;;;;;0.20;0.10;;;;;;;;;;5044399;28;20548;-84
2023/08/27 07:26:40;;;;;;;0.20;0.10;;;;;;;;;;5039831;28;20075;-84
2023/08/27 07:29:06;;;;;;;0.20;0.08;;;;;;;;;;5052115;28;20045;-84
2023/08/27 07:31:32;;;;;;;0.20;0.10;;;;;;;;;;5044941;28;20044;-83
2023/08/27 07:33:58;;;;;;;0.20;0.10;;;;;;;;;;5059498;28;20041;-83
2023/08/27 07:36:24;;;;;;;0.20;0.10;;;;;;;;;;5040941;28;20032;-82
2023/08/27 07:38:51;;;;;;;0.30;0.25;;;;;;;;;;5048559;28;20036;-84
2023/08/27 07:41:17;;;;;;;0.20;0.10;;;;;;;;;;5035446;28;20067;-83
2023/08/27 07:43:43;;;;;;;0.20;0.10;;;;;;;;;;5056843;28;20056;-84
2023/08/27 07:46:09;;;;;;;0.63;0.25;;;;;;;;;;5058997;28;20125;-84
2023/08/27 07:48:35;;;;;;;0.20;0.00;;;;;;;;;;5060562;28;20056;-85
2023/08/27 07:51:02;;;;;;;0.20;0.10;;;;;;;;;;5063748;28;20111;-86
2023/08/27 07:53:28;;;;;;;0.20;0.10;;;;;;;;;;5037200;28;20409;-84
2023/08/27 07:55:55;;;;;;;0.20;0.10;;;;;;;;;;5052333;28;20049;-83
2023/08/27 07:58:21;;;;;;;0.30;0.28;;;;;;;;;;5059478;28;20732;-84
2023/08/27 08:00:47;;;;;;;0.63;0.63;;;;;;;;;;5040768;28;20039;-84
2023/08/27 08:03:13;;;;;;;0.20;0.10;;;;;;;;;;5054169;28;20170;-86
2023/08/27 08:05:39;;;;;;;0.40;0.20;;;;;;;;;;5046462;28;20040;-85
2023/08/27 08:08:05;;;;;;;0.20;0.10;;;;;;;;;;5060506;28;20600;-85
2023/08/27 08:10:31;;;;;;;0.20;0.10;;;;;;;;;;5047950;28;20045;-82
2023/08/27 08:12:57;;;;;;;0.20;0.10;;;;;;;;;;5057033;28;20531;-84
2023/08/27 08:15:26;;;;;;;0.20;0.05;;;;;;;;;;5047492;28;20256;-85
2023/08/27 08:18:03;;;;;;;0.20;0.10;;;;;;;;;;5098332;22;20048;-90
2023/08/27 08:20:32;;;;;;;0.20;0.10;;;;;;;;;;5030686;28;20048;-89
2023/08/27 08:23:40;;;;;;;;;;;;;;;;;;;;;
2023/08/27 08:26:45;;;;;;;0.20;0.10;;;;;;;;;;4987785;28;20054;-86
2023/08/27 08:29:43;;;;;;;0.20;0.10;;;;;;;;;;4961261;28;20038;-87
2023/08/27 08:35:47;;;;;;;0.20;0.10;;;;;;;;;;4935981;28;20173;-89
2023/08/27 08:38:13;;;;;;;0.20;0.00;;;;;;;;;;4996016;28;20254;-85
2023/08/27 08:41:29;;;;;;;0.20;0.10;;;;;;;;;;5007846;28;20055;-83
2023/08/27 08:44:04;;;;;;;0.30;0.30;;;;;;;;;;4985524;28;20053;-84
2023/08/27 08:46:40;;;;;;;0.20;0.10;;;;;;;;;;4974679;28;20922;-85
2023/08/27 08:49:17;;;;;;;0.20;0.10;;;;;;;;;;4989960;28;20042;-85
2023/08/27 08:51:46;;;;;;;1.10;0.70;;;;;;;;;;4995830;28;20042;-87
2023/08/27 08:57:30;;;;;;;0.20;0.00;;;;;;;;;;4970535;28;20042;-88
2023/08/27 08:59:57;;;;;;;0.20;0.10;;;;;;;;;;5001951;28;20046;-87
2023/08/27 09:02:42;;;;;;;0.20;0.10;;;;;;;;;;5008635;28;20041;-88
2023/08/27 09:05:15;;;;;;;0.20;0.10;;;;;;;;;;5001484;28;20462;-84
2023/08/27 09:08:20;;;;;;;0.35;0.32;;;;;;;;;;5016590;28;20045;-86
2023/08/27 09:11:10;;;;;;;0.50;0.45;;;;;;;;;;5014570;28;20042;-88
2023/08/27 09:13:36;;;;;;;0.20;0.03;;;;;;;;;;4992691;28;20045;-87
2023/08/27 09:16:12;;;;;;;0.20;0.10;;;;;;;;;;4996740;28;20044;-88
2023/08/27 09:19:04;;;;;;;0.20;0.10;;;;;;;;;;5013191;28;20379;-87
2023/08/27 09:21:30;;;;;;;0.20;0.10;;;;;;;;;;5007428;28;20056;-86
2023/08/27 09:24:02;;;;;;;0.20;0.05;;;;;;;;;;5001617;28;20045;-86
2023/08/27 09:26:56;;;;;;;0.20;0.10;;;;;;;;;;5012325;28;20056;-87
2023/08/27 09:29:31;;;;;;;0.20;0.10;;;;;;;;;;5014290;28;20042;-86
2023/08/27 09:32:44;;;;;;;0.20;0.10;;;;;;;;;;5003794;28;20037;-88
2023/08/27 09:35:44;;;;;;;0.20;0.10;;;;;;;;;;4966612;28;20183;-86
2023/08/27 09:38:15;;;;;;;0.20;0.00;;;;;;;;;;5007174;28;20041;-87
2023/08/27 09:41:00;;;;;;;0.20;0.10;;;;;;;;;;5018265;28;20042;-86
2023/08/27 09:46:23;;;;;;;0.20;0.10;;;;;;;;;;5017569;28;20084;-86
2023/08/27 09:54:38;;;;;;;0.20;0.00;;;;;;;;;;5008778;28;20045;-87
2023/08/27 09:57:17;;;;;;;0.20;0.00;;;;;;;;;;5002526;28;20051;-86
2023/08/27 09:59:50;;;;;;;0.20;0.10;;;;;;;;;;5004663;28;20609;-86
2023/08/27 10:02:19;;;;;;;0.20;0.10;;;;;;;;;;4999628;28;20048;-86
2023/08/27 10:05:14;;;;;;;0.20;0.10;;;;;;;;;;5014530;28;20454;-86
2023/08/27 10:07:59;;;;;;;0.20;0.10;;;;;;;;;;4979034;28;20493;-89
2023/08/27 10:10:28;;;;;;;0.20;0.10;;;;;;;;;;5000991;28;20068;-85
2023/08/27 10:12:55;;;;;;;0.20;0.00;;;;;;;;;;5017282;28;20220;-85
2023/08/27 10:15:28;;;;;;;0.20;0.10;;;;;;;;;;4999160;28;20045;-86
2023/08/27 10:18:01;;;;;;;0.20;0.10;;;;;;;;;;5003472;28;20041;-88
2023/08/27 10:20:44;;;;;;;0.20;0.10;;;;;;;;;;5017683;28;20060;-87
2023/08/27 10:23:15;;;;;;;0.20;0.10;;;;;;;;;;5001752;28;20041;-86
2023/08/27 10:25:46;;;;;;;0.20;0.10;;;;;;;;;;5019035;28;20095;-85
2023/08/27 10:28:16;;;;;;;0.28;0.28;;;;;;;;;;5013060;28;20048;-86
2023/08/27 10:31:03;;;;;;;;;;;;;;;;;;;;;
2023/08/27 10:33:30;;;;;;;0.20;0.10;;;;;;;;;;5034194;28;20045;-90
2023/08/27 10:35:59;;;;;;;0.20;0.10;;;;;;;;;;4999624;28;20041;-84
2023/08/27 10:38:31;;;;;;;0.20;0.10;;;;;;;;;;5007169;28;20029;-86
2023/08/27 10:41:04;;;;;;;0.20;0.10;;;;;;;;;;5010667;28;20057;-85
2023/08/27 10:43:56;;;;;;;0.20;0.10;;;;;;;;;;4998021;28;20037;-88
2023/08/27 10:46:35;;;;;;;0.20;0.10;;;;;;;;;;5000915;28;20041;-86
2023/08/27 10:49:14;;;;;;;0.20;0.15;;;;;;;;;;5019830;28;20549;-86
2023/08/27 10:51:40;;;;;;;0.20;0.10;;;;;;;;;;4997097;28;20053;-86
2023/08/27 10:57:22;;;;;;;0.20;0.13;;;;;;;;;;5033083;28;20566;-88
2023/08/27 11:00:07;;;;;;;0.20;0.10;;;;;;;;;;4999571;28;20522;-86
2023/08/27 11:03:09;;;;;;;0.50;0.47;;;;;;;;;;4999585;28;20128;-86
2023/08/27 11:06:11;;;;;;;0.20;0.10;;;;;;;;;;4998542;28;20030;-89
2023/08/27 11:08:37;;;;;;;0.20;0.10;;;;;;;;;;5001644;28;20049;-86
2023/08/27 11:11:15;;;;;;;0.20;0.10;;;;;;;;;;4997752;28;20389;-88
2023/08/27 11:13:50;;;;;;;0.20;0.10;;;;;;;;;;5002994;28;21048;-88
2023/08/27 11:16:19;;;;;;;0.20;0.10;;;;;;;;;;5000927;28;20047;-85
2023/08/27 11:18:52;;;;;;;0.20;0.10;;;;;;;;;;5016716;28;20060;-86
2023/08/27 11:21:33;;;;;;;0.20;0.10;;;;;;;;;;4998786;28;20096;-88
2023/08/27 11:24:44;;;;;;;0.20;0.10;;;;;;;;;;5000931;28;20049;-85
2023/08/27 11:27:22;;;;;;;0.20;0.10;;;;;;;;;;4929126;28;20042;-86
2023/08/27 11:29:53;;;;;;;0.20;0.10;;;;;;;;;;4925251;28;20121;-87
2023/08/27 11:32:20;;;;;;;0.20;0.13;;;;;;;;;;4982094;28;20445;-82
2023/08/27 11:34:47;;;;;;;0.20;0.10;;;;;;;;;;5002060;28;20037;-86
2023/08/27 11:37:34;;;;;;;0.20;0.10;;;;;;;;;;5001495;28;20318;-88
2023/08/27 11:40:01;;;;;;;0.20;0.17;;;;;;;;;;5003950;28;20037;-87
2023/08/27 11:42:30;;;;;;;0.20;0.10;;;;;;;;;;5001621;28;20038;-86
2023/08/27 11:45:05;;;;;;;0.20;0.10;;;;;;;;;;5001448;28;20040;-85
2023/08/27 11:47:31;;;;;;;0.20;0.00;;;;;;;;;;5013401;28;20042;-85
2023/08/27 11:53:08;;;;;;;0.20;0.10;;;;;;;;;;5013172;28;20080;-87
2023/08/27 11:55:43;;;;;;;0.20;0.08;;;;;;;;;;4995251;28;20099;-87
2023/08/27 11:58:15;;;;;;;0.20;0.10;;;;;;;;;;5007576;28;20037;-87
2023/08/27 12:00:45;;;;;;;0.20;0.10;;;;;;;;;;4999582;28;20056;-86
2023/08/27 12:03:11;;;;;;;0.28;0.10;;;;;;;;;;4990795;28;20435;-86
2023/08/27 12:05:38;;;;;;;0.20;0.10;;;;;;;;;;4993216;28;20084;-86
2023/08/27 12:08:13;;;;;;;0.20;0.10;;;;;;;;;;5002634;28;20037;-85
2023/08/27 12:10:46;;;;;;;0.20;0.20;;;;;;;;;;4993894;28;20045;-88
2023/08/27 12:13:15;;;;;;;0.20;0.20;;;;;;;;;;5010289;28;20037;-86
2023/08/27 12:15:41;;;;;;;0.20;0.10;;;;;;;;;;4994094;28;20518;-86
2023/08/27 12:18:14;;;;;;;0.20;0.10;;;;;;;;;;5001612;28;20087;-88
2023/08/27 12:20:40;;;;;;;0.45;0.20;;;;;;;;;;4997801;28;20065;-86
2023/08/27 12:23:13;;;;;;;0.20;0.10;;;;;;;;;;5001007;28;20082;-85
2023/08/27 12:25:47;;;;;;;0.63;0.20;;;;;;;;;;4998750;28;20113;-84
2023/08/27 12:28:13;;;;;;;0.20;0.10;;;;;;;;;;5011281;28;20506;-85
2023/08/27 12:30:55;;;;;;;0.20;0.10;;;;;;;;;;4999373;28;20042;-88
2023/08/27 12:33:36;;;;;;;0.20;0.10;;;;;;;;;;4995018;28;20045;-85
2023/08/27 12:36:05;;;;;;;0.20;0.00;;;;;;;;;;4997490;28;20087;-84
2023/08/27 12:38:31;;;;;;;0.20;0.03;;;;;;;;;;5008460;28;20124;-84
2023/08/27 12:40:57;;;;;;;0.20;0.10;;;;;;;;;;4994137;28;20129;-83
2023/08/27 12:43:23;;;;;;;0.20;0.00;;;;;;;;;;4999680;28;20496;-82
2023/08/27 12:45:49;;;;;;;0.20;0.20;;;;;;;;;;5010065;28;20128;-84
2023/08/27 12:48:15;;;;;;;0.20;0.10;;;;;;;;;;5002338;28;20045;-83
2023/08/27 12:50:41;;;;;;;0.20;0.00;;;;;;;;;;5012885;28;20042;-84
2023/08/27 12:53:07;;;;;;;0.20;0.10;;;;;;;;;;5011923;28;20529;-85
2023/08/27 12:55:33;;;;;;;0.20;0.10;;;;;;;;;;5001336;28;20118;-82
2023/08/27 12:57:59;;;;;;;0.30;0.25;;;;;;;;;;4996659;28;20041;-82
2023/08/27 13:00:28;;;;;;;0.20;0.10;;;;;;;;;;5019175;28;20124;-84
2023/08/27 13:02:54;;;;;;;0.20;0.17;;;;;;;;;;5000973;28;20037;-84
2023/08/27 13:05:33;;;;;;;0.20;0.10;;;;;;;;;;5018985;28;20054;-84
2023/08/27 13:08:10;;;;;;;0.20;0.10;;;;;;;;;;4992974;28;20123;-83
2023/08/27 13:10:47;;;;;;;0.20;0.10;;;;;;;;;;5004003;28;20490;-83
2023/08/27 13:14:04;;;;;;;0.20;0.10;;;;;;;;;;4991310;28;20052;-84
2023/08/27 13:17:21;;;;;;;0.57;0.30;;;;;;;;;;5023601;28;20049;-82
2023/08/27 13:19:47;;;;;;;0.20;0.10;;;;;;;;;;5018805;28;20255;-84
2023/08/27 13:22:46;;;;;;;0.20;0.10;;;;;;;;;;5002196;28;20116;-88
2023/08/27 13:28:36;;;;;;;0.30;0.20;;;;;;;;;;4995569;28;20049;-83
2023/08/27 13:31:05;;;;;;;0.20;0.00;;;;;;;;;;4966896;28;20041;-83
2023/08/27 13:36:43;;;;;;;0.20;0.00;;;;;;;;;;5017389;28;20093;-82
2023/08/27 13:39:25;;;;;;;;;;;;;;;;;;;;;
2023/08/27 13:42:07;;;;;;;0.20;0.00;;;;;;;;;;5014133;28;20041;-85
2023/08/27 13:47:29;;;;;;;0.20;0.10;;;;;;;;;;5021353;28;20121;-85
2023/08/27 13:52:46;;;;;;;0.20;0.00;;;;;;;;;;5006043;28;20506;-85
2023/08/27 13:55:18;;;;;;;0.20;0.10;;;;;;;;;;5000047;28;20065;-85
2023/08/27 13:57:53;;;;;;;0.22;0.20;;;;;;;;;;5026723;23;20053;-85
2023/08/27 14:00:37;;;;;;;0.30;0.30;;;;;;;;;;5017476;28;20037;-87
2023/08/27 14:03:18;;;;;;;1.10;0.30;;;;;;;;;;5021995;28;20044;-87
2023/08/27 14:06:08;;;;;;;0.20;0.15;;;;;;;;;;5035115;28;20037;-87
2023/08/27 14:08:52;;;;;;;0.20;0.10;;;;;;;;;;5016792;28;20432;-84
2023/08/27 14:11:39;;;;;;;0.20;0.10;;;;;;;;;;5037076;28;20136;-84
2023/08/27 14:14:05;;;;;;;0.20;0.10;;;;;;;;;;5008587;28;20098;-84
2023/08/27 14:16:34;;;;;;;0.20;0.10;;;;;;;;;;5012476;28;20102;-87
2023/08/27 14:19:11;;;;;;;0.20;0.10;;;;;;;;;;5046298;22;20048;-86
2023/08/27 14:22:03;;;;;;;;;;;;;;;;;;;;;
2023/08/27 14:24:43;;;;;;;0.60;0.38;;;;;;;;;;5041114;28;20521;-85
2023/08/27 14:27:14;;;;;;;0.20;0.00;;;;;;;;;;5018256;28;20686;-81
2023/08/27 14:29:46;;;;;;;0.20;0.10;;;;;;;;;;5022020;28;20497;-87
2023/08/27 14:35:33;;;;;;;0.20;0.10;;;;;;;;;;4987868;28;20325;-86
2023/08/27 14:38:11;;;;;;;0.20;0.10;;;;;;;;;;4966438;28;20049;-85
2023/08/27 14:40:37;;;;;;;0.20;0.10;;;;;;;;;;5038164;28;20045;-84
2023/08/27 14:43:11;;;;;;;0.20;0.10;;;;;;;;;;5017387;28;20139;-84
2023/08/27 14:45:40;;;;;;;0.20;0.10;;;;;;;;;;5010882;28;20053;-84
2023/08/27 14:48:10;;;;;;;0.20;0.10;;;;;;;;;;5011741;28;20044;-85
2023/08/27 14:50:42;;;;;;;0.20;0.10;;;;;;;;;;5007097;28;20056;-86
2023/08/27 14:53:08;;;;;;;0.20;0.10;;;;;;;;;;5025392;28;20041;-86
2023/08/27 14:55:34;;;;;;;0.20;0.10;;;;;;;;;;5008629;28;20548;-84
2023/08/27 14:58:01;;;;;;;0.20;0.20;;;;;;;;;;5009826;28;20056;-85
2023/08/27 15:00:30;;;;;;;0.25;0.10;;;;;;;;;;5015778;28;21285;-84
2023/08/27 15:02:56;;;;;;;0.20;0.10;;;;;;;;;;5033865;28;20466;-82
2023/08/27 15:05:22;;;;;;;0.20;0.05;;;;;;;;;;5026651;28;20112;-82
2023/08/27 15:07:48;;;;;;;0.20;0.10;;;;;;;;;;5020330;28;20060;-82
2023/08/27 15:10:14;;;;;;;0.20;0.20;;;;;;;;;;5004237;28;20048;-81
2023/08/27 15:12:40;;;;;;;0.20;0.10;;;;;;;;;;5019613;28;23859;-80
2023/08/27 15:15:06;;;;;;;0.20;0.20;;;;;;;;;;5016625;28;20044;-81
2023/08/27 15:17:32;;;;;;;0.20;0.10;;;;;;;;;;5025562;28;20036;-82
2023/08/27 15:19:58;;;;;;;0.20;0.10;;;;;;;;;;5018720;28;20108;-83
2023/08/27 15:22:24;;;;;;;0.20;0.03;;;;;;;;;;5022187;28;20120;-82
2023/08/27 15:24:50;;;;;;;0.20;0.08;;;;;;;;;;5009149;28;20042;-83
2023/08/27 15:27:17;;;;;;;0.30;0.22;;;;;;;;;;5022260;28;20041;-80
2023/08/27 15:29:43;;;;;;;0.20;0.10;;;;;;;;;;5015933;28;20095;-82
2023/08/27 15:32:09;;;;;;;0.20;0.10;;;;;;;;;;5017255;28;20033;-83
2023/08/27 15:34:36;;;;;;;0.20;0.10;;;;;;;;;;5018806;28;20053;-80
2023/08/27 15:37:02;;;;;;;0.20;0.10;;;;;;;;;;5013599;28;20045;-80
2023/08/27 15:39:29;;;;;;;0.20;0.10;;;;;;;;;;5027016;28;20069;-81
2023/08/27 15:41:55;;;;;;;0.20;0.10;;;;;;;;;;5032723;28;20171;-83
2023/08/27 15:44:21;;;;;;;0.20;0.10;;;;;;;;;;5018660;28;20620;-81
2023/08/27 15:46:47;;;;;;;0.20;0.00;;;;;;;;;;5013003;28;20041;-81
2023/08/27 15:49:13;;;;;;;0.20;0.10;;;;;;;;;;5013281;28;20045;-82
2023/08/27 15:51:39;;;;;;;0.20;0.10;;;;;;;;;;5022495;28;20122;-82
2023/08/27 15:54:06;;;;;;;0.20;0.10;;;;;;;;;;5011008;28;20056;-84
2023/08/27 15:56:32;;;;;;;0.20;0.10;;;;;;;;;;5021588;28;20045;-81
2023/08/27 15:58:58;;;;;;;0.20;0.10;;;;;;;;;;5008486;28;20212;-79
2023/08/27 16:01:24;;;;;;;0.20;0.10;;;;;;;;;;5011787;28;20033;-82
2023/08/27 16:03:50;;;;;;;0.20;0.10;;;;;;;;;;5015834;28;20037;-82
2023/08/27 16:06:17;;;;;;;0.20;0.00;;;;;;;;;;5026595;28;20916;-81
2023/08/27 16:08:44;;;;;;;0.20;0.10;;;;;;;;;;5022176;28;20079;-80
2023/08/27 16:11:10;;;;;;;0.20;0.10;;;;;;;;;;5014276;28;20053;-83
2023/08/27 16:13:37;;;;;;;0.20;0.00;;;;;;;;;;5015958;28;20057;-82
2023/08/27 16:16:04;;;;;;;0.20;0.10;;;;;;;;;;5015204;28;20049;-83
2023/08/27 16:18:30;;;;;;;0.20;0.10;;;;;;;;;;5026465;28;20056;-83
2023/08/27 16:20:56;;;;;;;0.20;0.08;;;;;;;;;;5017267;28;20041;-84
2023/08/27 16:23:23;;;;;;;0.20;0.10;;;;;;;;;;5033165;28;20364;-82
2023/08/27 16:25:49;;;;;;;0.20;0.10;;;;;;;;;;5031408;28;20706;-81
2023/08/27 16:28:15;;;;;;;0.20;0.10;;;;;;;;;;5036783;28;20055;-80
2023/08/27 16:30:41;;;;;;;0.20;0.20;;;;;;;;;;5031964;28;20045;-81
2023/08/27 16:33:08;;;;;;;0.20;0.10;;;;;;;;;;5028764;28;20033;-81
2023/08/27 16:35:35;;;;;;;0.20;0.10;;;;;;;;;;5033319;28;20049;-82
2023/08/27 16:38:01;;;;;;;0.20;0.10;;;;;;;;;;5017457;28;20061;-78
2023/08/27 16:40:33;;;;;;;0.20;0.10;;;;;;;;;;5019248;28;20057;-81
2023/08/27 16:42:59;;;;;;;0.20;0.20;;;;;;;;;;5026549;28;20040;-83
2023/08/27 16:45:26;;;;;;;0.20;0.00;;;;;;;;;;5011544;28;20047;-79
2023/08/27 16:47:52;;;;;;;0.20;0.00;;;;;;;;;;5031151;28;20041;-83